sensor_id;sensor_type;location;lat;lon;timestamp;P1;durP1;ratioP1;P2;durP2;ratioP2
26656;SDS011;14279;50.010;8.260;2022-07-09T00:01:36;8.03;;;3.00;;
26656;SDS011;14279;50.010;8.260;2022-07-09T00:04:01;5.77;;;3.20;;
26656;SDS011;14279;50.010;8.260;2022-07-09T00:06:27;8.20;;;3.00;;
26656;SDS011;14279;50.010;8.260;2022-07-09T00:08:52;5.73;;;2.50;;
26656;SDS011;14279;50.010;8.260;2022-07-09T00:11:17;6.67;;;2.20;;
26656;SDS011;14279;50.010;8.260;2022-07-09T00:13:42;5.47;;;2.67;;
26656;SDS011;14279;50.010;8.260;2022-07-09T00:16:07;8.17;;;3.50;;
26656;SDS011;14279;50.010;8.260;2022-07-09T00:18:33;7.33;;;3.00;;
26656;SDS011;14279;50.010;8.260;2022-07-09T00:20:58;5.63;;;3.23;;
26656;SDS011;14279;50.010;8.260;2022-07-09T00:23:23;8.83;;;2.97;;
26656;SDS011;14279;50.010;8.260;2022-07-09T00:25:48;6.33;;;2.83;;
26656;SDS011;14279;50.010;8.260;2022-07-09T00:28:14;4.50;;;3.10;;
26656;SDS011;14279;50.010;8.260;2022-07-09T00:30:39;7.20;;;2.80;;
26656;SDS011;14279;50.010;8.260;2022-07-09T00:33:04;12.77;;;4.13;;
26656;SDS011;14279;50.010;8.260;2022-07-09T00:35:29;10.43;;;3.50;;
26656;SDS011;14279;50.010;8.260;2022-07-09T00:37:55;12.80;;;4.17;;
26656;SDS011;14279;50.010;8.260;2022-07-09T00:40:20;7.80;;;3.60;;
26656;SDS011;14279;50.010;8.260;2022-07-09T00:42:45;14.13;;;3.97;;
26656;SDS011;14279;50.010;8.260;2022-07-09T00:45:11;11.13;;;3.80;;
26656;SDS011;14279;50.010;8.260;2022-07-09T00:47:36;11.77;;;3.50;;
26656;SDS011;14279;50.010;8.260;2022-07-09T00:50:01;8.37;;;3.93;;
26656;SDS011;14279;50.010;8.260;2022-07-09T00:52:28;11.20;;;4.10;;
26656;SDS011;14279;50.010;8.260;2022-07-09T00:54:55;11.80;;;3.87;;
26656;SDS011;14279;50.010;8.260;2022-07-09T00:57:24;6.73;;;3.50;;
26656;SDS011;14279;50.010;8.260;2022-07-09T00:59:49;9.00;;;3.40;;
26656;SDS011;14279;50.010;8.260;2022-07-09T01:02:16;11.20;;;3.30;;
26656;SDS011;14279;50.010;8.260;2022-07-09T01:04:43;9.27;;;3.77;;
26656;SDS011;14279;50.010;8.260;2022-07-09T01:07:08;7.67;;;3.93;;
26656;SDS011;14279;50.010;8.260;2022-07-09T01:09:33;8.03;;;3.47;;
26656;SDS011;14279;50.010;8.260;2022-07-09T01:11:59;16.23;;;3.60;;
26656;SDS011;14279;50.010;8.260;2022-07-09T01:14:24;8.53;;;3.90;;
26656;SDS011;14279;50.010;8.260;2022-07-09T01:17:01;12.27;;;4.00;;
26656;SDS011;14279;50.010;8.260;2022-07-09T01:19:27;7.73;;;3.73;;
26656;SDS011;14279;50.010;8.260;2022-07-09T01:21:53;4.70;;;3.70;;
26656;SDS011;14279;50.010;8.260;2022-07-09T01:24:19;13.27;;;4.30;;
26656;SDS011;14279;50.010;8.260;2022-07-09T01:26:45;8.10;;;3.57;;
26656;SDS011;14279;50.010;8.260;2022-07-09T01:29:10;7.67;;;3.77;;
26656;SDS011;14279;50.010;8.260;2022-07-09T01:31:36;11.13;;;3.90;;
26656;SDS011;14279;50.010;8.260;2022-07-09T01:34:01;9.73;;;4.07;;
26656;SDS011;14279;50.010;8.260;2022-07-09T01:36:27;4.60;;;2.80;;
26656;SDS011;14279;50.010;8.260;2022-07-09T01:38:52;4.80;;;3.03;;
26656;SDS011;14279;50.010;8.260;2022-07-09T01:41:18;8.97;;;3.57;;
26656;SDS011;14279;50.010;8.260;2022-07-09T01:43:43;7.33;;;3.27;;
26656;SDS011;14279;50.010;8.260;2022-07-09T01:46:08;7.57;;;4.23;;
26656;SDS011;14279;50.010;8.260;2022-07-09T01:48:33;7.47;;;3.80;;
26656;SDS011;14279;50.010;8.260;2022-07-09T01:51:00;6.30;;;3.80;;
26656;SDS011;14279;50.010;8.260;2022-07-09T01:53:26;11.00;;;4.03;;
26656;SDS011;14279;50.010;8.260;2022-07-09T01:55:51;5.37;;;3.13;;
26656;SDS011;14279;50.010;8.260;2022-07-09T01:58:16;9.73;;;3.80;;
26656;SDS011;14279;50.010;8.260;2022-07-09T02:00:41;7.97;;;3.13;;
26656;SDS011;14279;50.010;8.260;2022-07-09T02:03:07;9.57;;;3.23;;
26656;SDS011;14279;50.010;8.260;2022-07-09T02:05:32;5.10;;;2.80;;
26656;SDS011;14279;50.010;8.260;2022-07-09T02:07:57;6.37;;;3.43;;
26656;SDS011;14279;50.010;8.260;2022-07-09T02:10:23;6.53;;;3.60;;
26656;SDS011;14279;50.010;8.260;2022-07-09T02:12:48;5.80;;;3.43;;
26656;SDS011;14279;50.010;8.260;2022-07-09T02:15:13;3.97;;;2.77;;
26656;SDS011;14279;50.010;8.260;2022-07-09T02:17:38;8.20;;;3.47;;
26656;SDS011;14279;50.010;8.260;2022-07-09T02:20:04;5.77;;;2.90;;
26656;SDS011;14279;50.010;8.260;2022-07-09T02:22:30;6.67;;;3.33;;
26656;SDS011;14279;50.010;8.260;2022-07-09T02:24:56;7.83;;;3.43;;
26656;SDS011;14279;50.010;8.260;2022-07-09T02:27:21;5.50;;;3.60;;
26656;SDS011;14279;50.010;8.260;2022-07-09T02:29:46;11.90;;;3.80;;
26656;SDS011;14279;50.010;8.260;2022-07-09T02:32:11;5.40;;;3.50;;
26656;SDS011;14279;50.010;8.260;2022-07-09T02:34:37;10.53;;;3.07;;
26656;SDS011;14279;50.010;8.260;2022-07-09T02:37:04;7.53;;;3.50;;
26656;SDS011;14279;50.010;8.260;2022-07-09T02:39:29;4.80;;;2.80;;
26656;SDS011;14279;50.010;8.260;2022-07-09T02:41:55;5.17;;;2.97;;
26656;SDS011;14279;50.010;8.260;2022-07-09T02:44:20;5.40;;;3.70;;
26656;SDS011;14279;50.010;8.260;2022-07-09T02:46:45;7.00;;;3.53;;
26656;SDS011;14279;50.010;8.260;2022-07-09T02:49:10;4.40;;;3.00;;
26656;SDS011;14279;50.010;8.260;2022-07-09T02:51:36;7.60;;;3.40;;
26656;SDS011;14279;50.010;8.260;2022-07-09T02:54:01;8.50;;;3.77;;
26656;SDS011;14279;50.010;8.260;2022-07-09T02:56:26;10.23;;;3.77;;
26656;SDS011;14279;50.010;8.260;2022-07-09T02:58:52;8.40;;;3.40;;
26656;SDS011;14279;50.010;8.260;2022-07-09T03:01:17;8.57;;;3.20;;
26656;SDS011;14279;50.010;8.260;2022-07-09T03:03:42;6.33;;;3.67;;
26656;SDS011;14279;50.010;8.260;2022-07-09T03:06:07;7.47;;;3.93;;
26656;SDS011;14279;50.010;8.260;2022-07-09T03:08:33;5.50;;;3.87;;
26656;SDS011;14279;50.010;8.260;2022-07-09T03:10:59;5.80;;;2.97;;
26656;SDS011;14279;50.010;8.260;2022-07-09T03:13:24;6.40;;;3.27;;
26656;SDS011;14279;50.010;8.260;2022-07-09T03:15:49;5.60;;;3.23;;
26656;SDS011;14279;50.010;8.260;2022-07-09T03:18:15;7.00;;;3.47;;
26656;SDS011;14279;50.010;8.260;2022-07-09T03:20:40;11.40;;;3.80;;
26656;SDS011;14279;50.010;8.260;2022-07-09T03:23:06;7.13;;;3.17;;
26656;SDS011;14279;50.010;8.260;2022-07-09T03:25:31;9.90;;;3.70;;
26656;SDS011;14279;50.010;8.260;2022-07-09T03:27:57;8.33;;;4.13;;
26656;SDS011;14279;50.010;8.260;2022-07-09T03:30:22;10.10;;;3.67;;
26656;SDS011;14279;50.010;8.260;2022-07-09T03:32:48;9.60;;;3.07;;
26656;SDS011;14279;50.010;8.260;2022-07-09T03:35:14;6.73;;;3.40;;
26656;SDS011;14279;50.010;8.260;2022-07-09T03:37:39;9.50;;;3.17;;
26656;SDS011;14279;50.010;8.260;2022-07-09T03:40:05;4.90;;;3.43;;
26656;SDS011;14279;50.010;8.260;2022-07-09T03:42:31;5.83;;;3.37;;
26656;SDS011;14279;50.010;8.260;2022-07-09T03:44:56;7.80;;;3.80;;
26656;SDS011;14279;50.010;8.260;2022-07-09T03:47:21;5.77;;;3.40;;
26656;SDS011;14279;50.010;8.260;2022-07-09T03:49:46;8.80;;;3.50;;
26656;SDS011;14279;50.010;8.260;2022-07-09T03:52:12;5.60;;;3.70;;
26656;SDS011;14279;50.010;8.260;2022-07-09T03:54:37;8.60;;;4.40;;
26656;SDS011;14279;50.010;8.260;2022-07-09T03:57:02;6.67;;;3.40;;
26656;SDS011;14279;50.010;8.260;2022-07-09T03:59:28;7.50;;;3.93;;
26656;SDS011;14279;50.010;8.260;2022-07-09T04:01:53;7.10;;;3.80;;
26656;SDS011;14279;50.010;8.260;2022-07-09T04:04:18;6.17;;;3.30;;
26656;SDS011;14279;50.010;8.260;2022-07-09T04:06:43;4.90;;;3.33;;
26656;SDS011;14279;50.010;8.260;2022-07-09T04:09:08;8.43;;;3.67;;
26656;SDS011;14279;50.010;8.260;2022-07-09T04:11:34;9.47;;;3.93;;
26656;SDS011;14279;50.010;8.260;2022-07-09T04:14:00;9.50;;;3.77;;
26656;SDS011;14279;50.010;8.260;2022-07-09T04:16:26;6.53;;;3.23;;
26656;SDS011;14279;50.010;8.260;2022-07-09T04:18:51;11.37;;;3.93;;
26656;SDS011;14279;50.010;8.260;2022-07-09T04:21:16;11.33;;;3.77;;
26656;SDS011;14279;50.010;8.260;2022-07-09T04:23:42;8.17;;;3.90;;
26656;SDS011;14279;50.010;8.260;2022-07-09T04:26:07;12.70;;;3.93;;
26656;SDS011;14279;50.010;8.260;2022-07-09T04:28:34;5.50;;;3.17;;
26656;SDS011;14279;50.010;8.260;2022-07-09T04:31:00;7.40;;;3.50;;
26656;SDS011;14279;50.010;8.260;2022-07-09T04:33:26;8.30;;;3.60;;
26656;SDS011;14279;50.010;8.260;2022-07-09T04:35:51;4.60;;;3.00;;
26656;SDS011;14279;50.010;8.260;2022-07-09T04:38:17;3.93;;;3.20;;
26656;SDS011;14279;50.010;8.260;2022-07-09T04:40:42;5.60;;;3.43;;
26656;SDS011;14279;50.010;8.260;2022-07-09T04:43:07;6.70;;;3.47;;
26656;SDS011;14279;50.010;8.260;2022-07-09T04:45:32;4.40;;;2.97;;
26656;SDS011;14279;50.010;8.260;2022-07-09T04:47:59;8.77;;;3.13;;
26656;SDS011;14279;50.010;8.260;2022-07-09T04:50:25;6.93;;;3.60;;
26656;SDS011;14279;50.010;8.260;2022-07-09T04:52:51;10.67;;;3.23;;
26656;SDS011;14279;50.010;8.260;2022-07-09T04:55:16;4.80;;;2.97;;
26656;SDS011;14279;50.010;8.260;2022-07-09T04:57:42;4.53;;;3.20;;
26656;SDS011;14279;50.010;8.260;2022-07-09T05:00:08;10.50;;;3.90;;
26656;SDS011;14279;50.010;8.260;2022-07-09T05:02:35;4.30;;;3.40;;
26656;SDS011;14279;50.010;8.260;2022-07-09T05:05:00;7.57;;;3.57;;
26656;SDS011;14279;50.010;8.260;2022-07-09T05:07:28;7.63;;;3.97;;
26656;SDS011;14279;50.010;8.260;2022-07-09T05:09:53;6.67;;;3.30;;
26656;SDS011;14279;50.010;8.260;2022-07-09T05:12:19;4.10;;;3.53;;
26656;SDS011;14279;50.010;8.260;2022-07-09T05:14:44;5.27;;;3.13;;
26656;SDS011;14279;50.010;8.260;2022-07-09T05:17:09;7.40;;;3.33;;
26656;SDS011;14279;50.010;8.260;2022-07-09T05:19:34;10.67;;;3.40;;
26656;SDS011;14279;50.010;8.260;2022-07-09T05:22:00;6.00;;;3.27;;
26656;SDS011;14279;50.010;8.260;2022-07-09T05:24:26;12.43;;;3.30;;
26656;SDS011;14279;50.010;8.260;2022-07-09T05:26:51;11.13;;;3.60;;
26656;SDS011;14279;50.010;8.260;2022-07-09T05:29:16;7.60;;;3.30;;
26656;SDS011;14279;50.010;8.260;2022-07-09T05:31:42;14.53;;;3.27;;
26656;SDS011;14279;50.010;8.260;2022-07-09T05:34:07;5.40;;;3.37;;
26656;SDS011;14279;50.010;8.260;2022-07-09T05:36:33;7.90;;;3.67;;
26656;SDS011;14279;50.010;8.260;2022-07-09T05:38:59;7.57;;;3.17;;
26656;SDS011;14279;50.010;8.260;2022-07-09T05:41:25;18.83;;;3.50;;
26656;SDS011;14279;50.010;8.260;2022-07-09T05:43:51;7.10;;;3.63;;
26656;SDS011;14279;50.010;8.260;2022-07-09T05:46:17;6.20;;;3.20;;
26656;SDS011;14279;50.010;8.260;2022-07-09T05:48:43;7.27;;;3.70;;
26656;SDS011;14279;50.010;8.260;2022-07-09T05:51:08;5.93;;;3.10;;
26656;SDS011;14279;50.010;8.260;2022-07-09T05:53:33;11.57;;;4.10;;
26656;SDS011;14279;50.010;8.260;2022-07-09T05:55:59;13.27;;;4.07;;
26656;SDS011;14279;50.010;8.260;2022-07-09T05:58:24;11.50;;;4.33;;
26656;SDS011;14279;50.010;8.260;2022-07-09T06:00:49;6.20;;;3.97;;
26656;SDS011;14279;50.010;8.260;2022-07-09T06:03:15;6.53;;;3.97;;
26656;SDS011;14279;50.010;8.260;2022-07-09T06:05:40;7.80;;;3.80;;
26656;SDS011;14279;50.010;8.260;2022-07-09T06:08:05;12.37;;;3.70;;
26656;SDS011;14279;50.010;8.260;2022-07-09T06:10:30;5.40;;;3.70;;
26656;SDS011;14279;50.010;8.260;2022-07-09T06:12:55;7.33;;;3.17;;
26656;SDS011;14279;50.010;8.260;2022-07-09T06:15:21;7.90;;;3.00;;
26656;SDS011;14279;50.010;8.260;2022-07-09T06:17:46;10.63;;;4.20;;
26656;SDS011;14279;50.010;8.260;2022-07-09T06:20:11;5.30;;;3.30;;
26656;SDS011;14279;50.010;8.260;2022-07-09T06:22:36;8.30;;;3.57;;
26656;SDS011;14279;50.010;8.260;2022-07-09T06:25:03;6.53;;;3.83;;
26656;SDS011;14279;50.010;8.260;2022-07-09T06:27:29;10.60;;;3.93;;
26656;SDS011;14279;50.010;8.260;2022-07-09T06:29:55;9.07;;;3.30;;
26656;SDS011;14279;50.010;8.260;2022-07-09T06:32:20;15.37;;;3.47;;
26656;SDS011;14279;50.010;8.260;2022-07-09T06:34:45;5.70;;;3.30;;
26656;SDS011;14279;50.010;8.260;2022-07-09T06:37:10;7.37;;;3.13;;
26656;SDS011;14279;50.010;8.260;2022-07-09T06:39:35;7.93;;;3.40;;
26656;SDS011;14279;50.010;8.260;2022-07-09T06:42:10;7.73;;;3.70;;
26656;SDS011;14279;50.010;8.260;2022-07-09T06:44:37;7.30;;;2.87;;
26656;SDS011;14279;50.010;8.260;2022-07-09T06:47:03;5.60;;;2.80;;
26656;SDS011;14279;50.010;8.260;2022-07-09T06:49:29;6.47;;;3.10;;
26656;SDS011;14279;50.010;8.260;2022-07-09T06:51:54;5.47;;;2.80;;
26656;SDS011;14279;50.010;8.260;2022-07-09T06:54:20;6.13;;;2.90;;
26656;SDS011;14279;50.010;8.260;2022-07-09T06:56:45;6.43;;;3.13;;
26656;SDS011;14279;50.010;8.260;2022-07-09T06:59:11;6.80;;;2.70;;
26656;SDS011;14279;50.010;8.260;2022-07-09T07:01:36;5.77;;;3.00;;
26656;SDS011;14279;50.010;8.260;2022-07-09T07:04:01;6.83;;;2.47;;
26656;SDS011;14279;50.010;8.260;2022-07-09T07:06:26;5.53;;;2.43;;
26656;SDS011;14279;50.010;8.260;2022-07-09T07:08:52;4.07;;;2.73;;
26656;SDS011;14279;50.010;8.260;2022-07-09T07:11:17;7.40;;;2.90;;
26656;SDS011;14279;50.010;8.260;2022-07-09T07:13:43;6.60;;;3.17;;
26656;SDS011;14279;50.010;8.260;2022-07-09T07:16:08;12.53;;;2.93;;
26656;SDS011;14279;50.010;8.260;2022-07-09T07:18:33;6.10;;;2.53;;
26656;SDS011;14279;50.010;8.260;2022-07-09T07:20:58;10.30;;;3.23;;
26656;SDS011;14279;50.010;8.260;2022-07-09T07:23:24;4.93;;;2.73;;
26656;SDS011;14279;50.010;8.260;2022-07-09T07:25:49;13.00;;;3.30;;
26656;SDS011;14279;50.010;8.260;2022-07-09T07:28:14;9.50;;;3.73;;
26656;SDS011;14279;50.010;8.260;2022-07-09T07:30:45;10.63;;;3.53;;
26656;SDS011;14279;50.010;8.260;2022-07-09T07:33:10;7.87;;;3.43;;
26656;SDS011;14279;50.010;8.260;2022-07-09T07:35:35;8.23;;;3.07;;
26656;SDS011;14279;50.010;8.260;2022-07-09T07:38:00;9.03;;;3.87;;
26656;SDS011;14279;50.010;8.260;2022-07-09T07:40:26;11.90;;;4.30;;
26656;SDS011;14279;50.010;8.260;2022-07-09T07:42:51;10.00;;;4.20;;
26656;SDS011;14279;50.010;8.260;2022-07-09T07:45:16;7.27;;;4.00;;
26656;SDS011;14279;50.010;8.260;2022-07-09T07:47:45;10.20;;;3.90;;
26656;SDS011;14279;50.010;8.260;2022-07-09T07:50:11;12.33;;;3.77;;
26656;SDS011;14279;50.010;8.260;2022-07-09T07:55:53;9.90;;;3.83;;
26656;SDS011;14279;50.010;8.260;2022-07-09T08:07:54;6.93;;;3.20;;
26656;SDS011;14279;50.010;8.260;2022-07-09T08:11:02;8.00;;;3.10;;
26656;SDS011;14279;50.010;8.260;2022-07-09T08:13:35;7.53;;;3.30;;
26656;SDS011;14279;50.010;8.260;2022-07-09T08:19:45;3.83;;;2.50;;
26656;SDS011;14279;50.010;8.260;2022-07-09T08:22:12;4.43;;;2.47;;
26656;SDS011;14279;50.010;8.260;2022-07-09T08:24:39;13.13;;;3.37;;
26656;SDS011;14279;50.010;8.260;2022-07-09T08:27:04;4.33;;;2.70;;
26656;SDS011;14279;50.010;8.260;2022-07-09T08:29:30;5.87;;;3.00;;
26656;SDS011;14279;50.010;8.260;2022-07-09T08:31:55;2.53;;;2.00;;
26656;SDS011;14279;50.010;8.260;2022-07-09T08:34:20;11.50;;;2.80;;
26656;SDS011;14279;50.010;8.260;2022-07-09T08:36:49;6.50;;;2.20;;
26656;SDS011;14279;50.010;8.260;2022-07-09T08:39:14;4.87;;;2.50;;
26656;SDS011;14279;50.010;8.260;2022-07-09T08:41:39;8.30;;;2.60;;
26656;SDS011;14279;50.010;8.260;2022-07-09T08:44:04;8.10;;;2.37;;
26656;SDS011;14279;50.010;8.260;2022-07-09T08:46:32;7.10;;;2.57;;
26656;SDS011;14279;50.010;8.260;2022-07-09T08:48:58;6.03;;;2.70;;
26656;SDS011;14279;50.010;8.260;2022-07-09T08:51:23;4.40;;;2.17;;
26656;SDS011;14279;50.010;8.260;2022-07-09T08:53:49;3.30;;;2.30;;
26656;SDS011;14279;50.010;8.260;2022-07-09T08:56:14;3.07;;;1.70;;
26656;SDS011;14279;50.010;8.260;2022-07-09T08:58:40;2.40;;;1.60;;
26656;SDS011;14279;50.010;8.260;2022-07-09T09:01:06;2.83;;;1.80;;
26656;SDS011;14279;50.010;8.260;2022-07-09T09:03:33;7.43;;;2.20;;
26656;SDS011;14279;50.010;8.260;2022-07-09T09:06:03;2.30;;;1.63;;
26656;SDS011;14279;50.010;8.260;2022-07-09T09:08:34;4.13;;;2.00;;
26656;SDS011;14279;50.010;8.260;2022-07-09T09:11:01;2.00;;;1.53;;
26656;SDS011;14279;50.010;8.260;2022-07-09T09:13:51;7.90;;;2.20;;
26656;SDS011;14279;50.010;8.260;2022-07-09T09:16:16;3.40;;;1.93;;
26656;SDS011;14279;50.010;8.260;2022-07-09T09:18:47;3.33;;;1.73;;
26656;SDS011;14279;50.010;8.260;2022-07-09T09:21:14;3.00;;;1.90;;
26656;SDS011;14279;50.010;8.260;2022-07-09T09:23:41;5.67;;;1.90;;
26656;SDS011;14279;50.010;8.260;2022-07-09T09:26:15;2.57;;;1.93;;
26656;SDS011;14279;50.010;8.260;2022-07-09T09:28:52;3.10;;;1.50;;
26656;SDS011;14279;50.010;8.260;2022-07-09T09:41:54;5.00;;;1.70;;
26656;SDS011;14279;50.010;8.260;2022-07-09T09:44:22;4.70;;;2.00;;
26656;SDS011;14279;50.010;8.260;2022-07-09T09:46:56;1.63;;;1.17;;
26656;SDS011;14279;50.010;8.260;2022-07-09T09:49:23;3.10;;;1.10;;
26656;SDS011;14279;50.010;8.260;2022-07-09T09:51:56;3.37;;;1.27;;
26656;SDS011;14279;50.010;8.260;2022-07-09T09:54:33;4.53;;;1.40;;
26656;SDS011;14279;50.010;8.260;2022-07-09T09:56:59;1.13;;;1.00;;
26656;SDS011;14279;50.010;8.260;2022-07-09T09:59:25;1.73;;;1.10;;
26656;SDS011;14279;50.010;8.260;2022-07-09T10:01:51;1.93;;;1.30;;
26656;SDS011;14279;50.010;8.260;2022-07-09T10:04:19;8.03;;;1.27;;
26656;SDS011;14279;50.010;8.260;2022-07-09T10:06:46;3.87;;;1.63;;
26656;SDS011;14279;50.010;8.260;2022-07-09T10:09:12;1.97;;;1.50;;
26656;SDS011;14279;50.010;8.260;2022-07-09T10:11:42;2.40;;;1.53;;
26656;SDS011;14279;50.010;8.260;2022-07-09T10:14:30;3.73;;;1.70;;
26656;SDS011;14279;50.010;8.260;2022-07-09T10:17:08;2.70;;;1.53;;
26656;SDS011;14279;50.010;8.260;2022-07-09T10:22:42;2.87;;;2.00;;
26656;SDS011;14279;50.010;8.260;2022-07-09T10:25:08;1.93;;;1.60;;
26656;SDS011;14279;50.010;8.260;2022-07-09T10:27:44;4.90;;;1.57;;
26656;SDS011;14279;50.010;8.260;2022-07-09T10:30:26;2.20;;;1.60;;
26656;SDS011;14279;50.010;8.260;2022-07-09T10:33:03;8.13;;;1.97;;
26656;SDS011;14279;50.010;8.260;2022-07-09T10:35:42;5.50;;;1.60;;
26656;SDS011;14279;50.010;8.260;2022-07-09T10:38:09;3.43;;;1.87;;
26656;SDS011;14279;50.010;8.260;2022-07-09T10:40:38;2.00;;;1.23;;
26656;SDS011;14279;50.010;8.260;2022-07-09T10:43:07;2.33;;;1.60;;
26656;SDS011;14279;50.010;8.260;2022-07-09T10:48:03;2.70;;;1.30;;
26656;SDS011;14279;50.010;8.260;2022-07-09T10:50:30;2.47;;;1.67;;
26656;SDS011;14279;50.010;8.260;2022-07-09T10:52:57;2.43;;;1.50;;
26656;SDS011;14279;50.010;8.260;2022-07-09T10:55:25;3.90;;;1.57;;
26656;SDS011;14279;50.010;8.260;2022-07-09T10:57:52;3.10;;;1.60;;
26656;SDS011;14279;50.010;8.260;2022-07-09T11:00:20;8.50;;;1.83;;
26656;SDS011;14279;50.010;8.260;2022-07-09T11:02:53;2.20;;;1.67;;
26656;SDS011;14279;50.010;8.260;2022-07-09T11:05:23;5.47;;;2.23;;
26656;SDS011;14279;50.010;8.260;2022-07-09T11:08:01;4.17;;;1.67;;
26656;SDS011;14279;50.010;8.260;2022-07-09T11:10:31;5.37;;;1.60;;
26656;SDS011;14279;50.010;8.260;2022-07-09T11:12:59;2.30;;;1.60;;
26656;SDS011;14279;50.010;8.260;2022-07-09T11:15:26;4.70;;;1.60;;
26656;SDS011;14279;50.010;8.260;2022-07-09T11:17:56;2.53;;;1.50;;
26656;SDS011;14279;50.010;8.260;2022-07-09T11:20:22;7.33;;;1.57;;
26656;SDS011;14279;50.010;8.260;2022-07-09T11:22:48;2.47;;;1.60;;
26656;SDS011;14279;50.010;8.260;2022-07-09T11:25:17;2.23;;;1.40;;
26656;SDS011;14279;50.010;8.260;2022-07-09T11:27:45;2.87;;;1.57;;
26656;SDS011;14279;50.010;8.260;2022-07-09T11:30:13;2.90;;;1.60;;
26656;SDS011;14279;50.010;8.260;2022-07-09T11:32:39;5.50;;;1.70;;
26656;SDS011;14279;50.010;8.260;2022-07-09T11:35:06;3.10;;;1.30;;
26656;SDS011;14279;50.010;8.260;2022-07-09T11:37:31;2.33;;;1.50;;
26656;SDS011;14279;50.010;8.260;2022-07-09T11:39:56;6.03;;;1.57;;
26656;SDS011;14279;50.010;8.260;2022-07-09T11:42:22;2.50;;;1.47;;
26656;SDS011;14279;50.010;8.260;2022-07-09T11:44:53;1.93;;;1.50;;
26656;SDS011;14279;50.010;8.260;2022-07-09T11:47:19;8.63;;;1.40;;
26656;SDS011;14279;50.010;8.260;2022-07-09T11:49:48;2.70;;;1.50;;
26656;SDS011;14279;50.010;8.260;2022-07-09T11:52:28;2.30;;;1.57;;
26656;SDS011;14279;50.010;8.260;2022-07-09T11:55:02;2.03;;;1.27;;
26656;SDS011;14279;50.010;8.260;2022-07-09T11:57:37;3.63;;;1.43;;
26656;SDS011;14279;50.010;8.260;2022-07-09T12:00:03;1.93;;;1.43;;
26656;SDS011;14279;50.010;8.260;2022-07-09T12:04:58;3.27;;;1.73;;
26656;SDS011;14279;50.010;8.260;2022-07-09T12:07:24;3.57;;;1.70;;
26656;SDS011;14279;50.010;8.260;2022-07-09T12:10:03;1.33;;;1.07;;
26656;SDS011;14279;50.010;8.260;2022-07-09T12:12:36;1.97;;;1.30;;
26656;SDS011;14279;50.010;8.260;2022-07-09T12:15:03;2.17;;;1.83;;
26656;SDS011;14279;50.010;8.260;2022-07-09T12:17:30;3.13;;;1.47;;
26656;SDS011;14279;50.010;8.260;2022-07-09T12:19:56;1.77;;;1.20;;
26656;SDS011;14279;50.010;8.260;2022-07-09T12:22:25;1.40;;;1.30;;
26656;SDS011;14279;50.010;8.260;2022-07-09T12:24:51;3.33;;;1.60;;
26656;SDS011;14279;50.010;8.260;2022-07-09T12:27:17;1.77;;;1.43;;
26656;SDS011;14279;50.010;8.260;2022-07-09T12:29:43;1.40;;;1.17;;
26656;SDS011;14279;50.010;8.260;2022-07-09T12:32:08;1.73;;;1.33;;
26656;SDS011;14279;50.010;8.260;2022-07-09T12:34:34;10.43;;;1.30;;
26656;SDS011;14279;50.010;8.260;2022-07-09T12:37:00;5.00;;;1.30;;
26656;SDS011;14279;50.010;8.260;2022-07-09T12:39:25;2.63;;;1.10;;
26656;SDS011;14279;50.010;8.260;2022-07-09T12:41:51;2.87;;;1.20;;
26656;SDS011;14279;50.010;8.260;2022-07-09T12:44:16;2.83;;;1.13;;
26656;SDS011;14279;50.010;8.260;2022-07-09T12:46:41;1.87;;;1.20;;
26656;SDS011;14279;50.010;8.260;2022-07-09T12:49:07;1.87;;;1.33;;
26656;SDS011;14279;50.010;8.260;2022-07-09T12:51:33;5.07;;;1.43;;
26656;SDS011;14279;50.010;8.260;2022-07-09T12:53:58;1.87;;;1.20;;
26656;SDS011;14279;50.010;8.260;2022-07-09T12:56:24;2.90;;;1.40;;
26656;SDS011;14279;50.010;8.260;2022-07-09T12:58:51;1.13;;;1.03;;
26656;SDS011;14279;50.010;8.260;2022-07-09T13:01:16;2.97;;;1.10;;
26656;SDS011;14279;50.010;8.260;2022-07-09T13:03:42;2.33;;;1.30;;
26656;SDS011;14279;50.010;8.260;2022-07-09T13:06:07;1.47;;;1.20;;
26656;SDS011;14279;50.010;8.260;2022-07-09T13:08:51;1.90;;;1.30;;
26656;SDS011;14279;50.010;8.260;2022-07-09T13:11:16;7.63;;;1.40;;
26656;SDS011;14279;50.010;8.260;2022-07-09T13:13:42;3.70;;;1.13;;
26656;SDS011;14279;50.010;8.260;2022-07-09T13:16:07;3.53;;;1.23;;
26656;SDS011;14279;50.010;8.260;2022-07-09T13:18:32;1.27;;;1.17;;
26656;SDS011;14279;50.010;8.260;2022-07-09T13:20:57;2.17;;;1.30;;
26656;SDS011;14279;50.010;8.260;2022-07-09T13:23:22;2.47;;;1.17;;
26656;SDS011;14279;50.010;8.260;2022-07-09T13:25:48;2.37;;;1.30;;
26656;SDS011;14279;50.010;8.260;2022-07-09T13:28:13;2.53;;;1.30;;
26656;SDS011;14279;50.010;8.260;2022-07-09T13:30:38;2.77;;;2.07;;
26656;SDS011;14279;50.010;8.260;2022-07-09T13:33:04;2.63;;;1.30;;
26656;SDS011;14279;50.010;8.260;2022-07-09T13:35:29;2.20;;;1.40;;
26656;SDS011;14279;50.010;8.260;2022-07-09T13:37:54;5.17;;;1.50;;
26656;SDS011;14279;50.010;8.260;2022-07-09T13:40:19;1.63;;;1.37;;
26656;SDS011;14279;50.010;8.260;2022-07-09T13:42:45;1.93;;;1.70;;
26656;SDS011;14279;50.010;8.260;2022-07-09T13:45:10;2.63;;;1.53;;
26656;SDS011;14279;50.010;8.260;2022-07-09T13:47:35;4.40;;;1.50;;
26656;SDS011;14279;50.010;8.260;2022-07-09T13:50:00;4.10;;;1.27;;
26656;SDS011;14279;50.010;8.260;2022-07-09T13:52:26;1.57;;;1.30;;
26656;SDS011;14279;50.010;8.260;2022-07-09T13:54:51;1.30;;;1.20;;
26656;SDS011;14279;50.010;8.260;2022-07-09T13:57:16;2.20;;;1.40;;
26656;SDS011;14279;50.010;8.260;2022-07-09T13:59:41;3.20;;;1.70;;
26656;SDS011;14279;50.010;8.260;2022-07-09T14:02:07;2.83;;;2.10;;
26656;SDS011;14279;50.010;8.260;2022-07-09T14:04:32;1.77;;;1.40;;
26656;SDS011;14279;50.010;8.260;2022-07-09T14:06:57;2.63;;;1.40;;
26656;SDS011;14279;50.010;8.260;2022-07-09T14:09:22;1.53;;;1.20;;
26656;SDS011;14279;50.010;8.260;2022-07-09T14:11:48;1.63;;;1.53;;
26656;SDS011;14279;50.010;8.260;2022-07-09T14:14:13;1.60;;;1.50;;
26656;SDS011;14279;50.010;8.260;2022-07-09T14:16:38;1.90;;;1.30;;
26656;SDS011;14279;50.010;8.260;2022-07-09T14:19:04;2.77;;;1.50;;
26656;SDS011;14279;50.010;8.260;2022-07-09T14:21:29;3.03;;;1.70;;
26656;SDS011;14279;50.010;8.260;2022-07-09T14:23:55;1.67;;;1.57;;
26656;SDS011;14279;50.010;8.260;2022-07-09T14:26:20;1.70;;;1.50;;
26656;SDS011;14279;50.010;8.260;2022-07-09T14:28:46;1.80;;;1.63;;
26656;SDS011;14279;50.010;8.260;2022-07-09T14:31:11;2.03;;;1.70;;
26656;SDS011;14279;50.010;8.260;2022-07-09T14:33:37;2.50;;;1.60;;
26656;SDS011;14279;50.010;8.260;2022-07-09T14:36:02;1.73;;;1.40;;
26656;SDS011;14279;50.010;8.260;2022-07-09T14:38:27;1.67;;;1.30;;
26656;SDS011;14279;50.010;8.260;2022-07-09T14:40:53;1.70;;;1.50;;
26656;SDS011;14279;50.010;8.260;2022-07-09T14:43:18;4.37;;;1.87;;
26656;SDS011;14279;50.010;8.260;2022-07-09T14:45:43;1.90;;;1.73;;
26656;SDS011;14279;50.010;8.260;2022-07-09T14:48:08;3.13;;;1.53;;
26656;SDS011;14279;50.010;8.260;2022-07-09T14:50:34;2.40;;;1.40;;
26656;SDS011;14279;50.010;8.260;2022-07-09T14:53:00;4.10;;;1.57;;
26656;SDS011;14279;50.010;8.260;2022-07-09T14:55:26;1.77;;;1.50;;
26656;SDS011;14279;50.010;8.260;2022-07-09T14:57:55;6.27;;;1.77;;
26656;SDS011;14279;50.010;8.260;2022-07-09T15:00:20;1.67;;;1.50;;
26656;SDS011;14279;50.010;8.260;2022-07-09T15:02:45;3.10;;;2.07;;
26656;SDS011;14279;50.010;8.260;2022-07-09T15:05:11;1.70;;;1.60;;
26656;SDS011;14279;50.010;8.260;2022-07-09T15:07:36;1.70;;;1.43;;
26656;SDS011;14279;50.010;8.260;2022-07-09T15:10:05;3.10;;;1.70;;
26656;SDS011;14279;50.010;8.260;2022-07-09T15:12:30;1.70;;;1.60;;
26656;SDS011;14279;50.010;8.260;2022-07-09T15:14:56;4.10;;;1.70;;
26656;SDS011;14279;50.010;8.260;2022-07-09T15:17:21;1.87;;;1.60;;